Time;durP1;ratioP1;P1;durP2;ratioP2;P2;SDS_P1;SDS_P2;PMS_P1;PMS_P2;Temp;Humidity;BMP_temperature;BMP_pressure;BME280_temperature;BME280_humidity;BME280_pressure;Samples;Min_cycle;Max_cycle;Signal;HPM_P1;HPM_P2
2021/06/23 00:01:33;;;;;;;9.65;4.95;;;14.80;99.90;;;;;;5027982;28;20269;-75
2021/06/23 00:04:00;;;;;;;13.48;4.35;;;14.80;99.90;;;;;;5025350;28;20314;-74
2021/06/23 00:06:27;;;;;;;11.35;4.47;;;14.80;99.90;;;;;;5023984;28;20211;-74
2021/06/23 00:08:55;;;;;;;10.60;4.38;;;14.70;99.90;;;;;;5024252;28;20223;-72
2021/06/23 00:11:23;;;;;;;11.05;3.90;;;14.60;99.90;;;;;;5021712;28;20583;-75
2021/06/23 00:13:51;;;;;;;6.75;3.70;;;14.60;99.90;;;;;;5025528;28;20200;-74
2021/06/23 00:16:20;;;;;;;8.18;5.00;;;14.50;99.90;;;;;;5032133;28;20208;-74
2021/06/23 00:18:47;;;;;;;7.60;5.35;;;14.50;99.90;;;;;;5025620;28;20232;-74
2021/06/23 00:21:14;;;;;;;7.80;6.10;;;14.40;99.90;;;;;;5031291;28;20196;-75
2021/06/23 00:23:42;;;;;;;7.75;4.75;;;14.30;99.90;;;;;;5023530;28;20204;-75
2021/06/23 00:26:09;;;;;;;10.23;5.72;;;14.20;99.90;;;;;;5023085;28;20222;-75
2021/06/23 00:28:36;;;;;;;10.70;5.22;;;14.10;99.90;;;;;;5025382;28;20205;-75
2021/06/23 00:31:05;;;;;;;13.85;6.10;;;14.10;99.90;;;;;;5021503;28;20288;-74
2021/06/23 00:33:34;;;;;;;16.83;6.80;;;14.00;99.90;;;;;;5021837;28;20200;-74
2021/06/23 00:36:01;;;;;;;11.27;5.85;;;14.00;99.90;;;;;;5012695;28;20201;-75
2021/06/23 00:38:29;;;;;;;8.73;6.13;;;13.90;99.90;;;;;;5016528;28;20239;-75
2021/06/23 00:40:56;;;;;;;15.63;7.38;;;13.90;99.90;;;;;;5025963;28;20280;-74
2021/06/23 00:43:24;;;;;;;7.80;5.90;;;13.80;99.90;;;;;;5029172;28;20280;-74
2021/06/23 00:45:52;;;;;;;9.93;6.20;;;13.80;99.90;;;;;;5022536;28;20568;-74
2021/06/23 00:48:27;;;;;;;14.73;5.90;;;13.80;99.90;;;;;;5024415;28;20713;-75
2021/06/23 00:50:55;;;;;;;10.50;5.05;;;13.80;99.90;;;;;;5024484;28;20314;-73
2021/06/23 00:53:23;;;;;;;10.25;6.25;;;13.70;99.90;;;;;;5020001;28;20273;-73
2021/06/23 05:14:44;;;;;;;12.10;4.20;;;21.10;99.90;;;;;;4986203;28;20452;-85
2021/06/23 05:17:12;;;;;;;11.73;4.83;;;21.70;98.80;;;;;;5022377;28;20483;-83
2021/06/23 05:19:40;;;;;;;15.73;5.17;;;21.40;98.40;;;;;;5020237;28;20448;-87
2021/06/23 05:22:10;;;;;;;8.30;3.93;;;21.20;99.10;;;;;;5019953;28;20440;-84
2021/06/23 05:24:39;;;;;;;7.27;3.67;;;21.80;97.90;;;;;;5015589;28;20446;-84
2021/06/23 05:27:09;;;;;;;11.03;3.83;;;22.80;96.90;;;;;;5021703;28;20474;-87
2021/06/23 05:29:37;;;;;;;11.17;4.27;;;24.00;94.40;;;;;;5033446;28;20854;-84
2021/06/23 05:32:06;;;;;;;6.47;4.47;;;24.20;92.70;;;;;;5013833;28;20523;-83
2021/06/23 05:34:33;;;;;;;18.80;4.97;;;23.40;92.90;;;;;;5015953;28;20459;-85
2021/06/23 05:37:00;;;;;;;12.90;5.60;;;22.50;94.10;;;;;;5023002;28;20620;-85
2021/06/23 05:39:27;;;;;;;9.07;5.33;;;21.90;96.40;;;;;;5013810;28;20479;-85
2021/06/23 05:41:54;;;;;;;11.83;5.30;;;21.30;97.90;;;;;;5021620;28;20462;-85
2021/06/23 05:44:21;;;;;;;11.50;5.30;;;20.80;99.50;;;;;;5024069;28;20447;-85
2021/06/23 05:46:50;;;;;;;14.47;5.63;;;20.60;99.90;;;;;;5019130;28;20476;-85
2021/06/23 05:49:17;;;;;;;11.23;4.83;;;21.20;99.90;;;;;;5020518;28;20525;-85
2021/06/23 05:51:44;;;;;;;10.53;5.07;;;22.00;97.40;;;;;;5018464;28;20455;-85
2021/06/23 05:54:14;;;;;;;13.13;5.30;;;22.20;96.40;;;;;;5033622;28;21002;-87
2021/06/23 05:56:41;;;;;;;5.80;3.67;;;22.10;95.90;;;;;;5026224;28;20454;-85
2021/06/23 05:59:12;;;;;;;10.93;4.27;;;22.50;96.20;;;;;;5031335;28;20431;-84
2021/06/23 06:01:39;;;;;;;11.67;4.53;;;23.40;94.30;;;;;;5024856;28;20452;-86
2021/06/23 06:04:07;;;;;;;8.43;4.60;;;24.00;92.60;;;;;;5029237;28;20462;-85
2021/06/23 06:06:35;;;;;;;9.30;4.40;;;24.20;91.60;;;;;;5031102;28;20540;-85
2021/06/23 06:09:06;;;;;;;14.77;3.97;;;23.90;92.20;;;;;;5031651;28;20538;-85
2021/06/23 06:11:34;;;;;;;10.20;4.33;;;23.70;92.20;;;;;;5026029;28;20467;-83
2021/06/23 06:14:01;;;;;;;8.97;4.67;;;23.30;92.80;;;;;;5036188;28;20454;-83
2021/06/23 06:16:28;;;;;;;11.30;4.60;;;22.80;93.10;;;;;;5015910;28;20539;-84
2021/06/23 06:18:56;;;;;;;10.63;4.63;;;22.20;94.00;;;;;;5029822;28;20491;-85
2021/06/23 06:21:24;;;;;;;17.20;4.87;;;21.90;95.20;;;;;;5032028;28;20482;-85
2021/06/23 06:23:52;;;;;;;11.33;4.50;;;22.30;95.00;;;;;;5021159;28;20443;-85
2021/06/23 06:26:22;;;;;;;9.70;4.17;;;22.60;93.90;;;;;;5020839;28;20513;-85
2021/06/23 06:28:49;;;;;;;12.27;4.40;;;22.40;94.30;;;;;;5026787;28;20450;-85
2021/06/23 06:31:16;;;;;;;10.63;4.00;;;22.20;94.70;;;;;;5022962;28;20454;-86
2021/06/23 06:33:44;;;;;;;14.27;4.73;;;22.60;94.90;;;;;;5031702;28;20442;-85
2021/06/23 06:36:11;;;;;;;9.57;4.00;;;23.30;93.60;;;;;;5030359;28;20476;-85
2021/06/23 06:38:40;;;;;;;10.80;4.17;;;24.20;92.80;;;;;;5029199;28;20439;-84
2021/06/23 06:41:08;;;;;;;10.20;4.27;;;24.70;91.00;;;;;;5033928;28;20500;-85
2021/06/23 06:43:36;;;;;;;10.33;3.03;;;25.60;89.70;;;;;;5034703;28;20929;-85
2021/06/23 06:46:03;;;;;;;10.83;4.10;;;26.30;87.90;;;;;;5032577;28;20538;-85
2021/06/23 06:48:33;;;;;;;8.27;4.70;;;25.90;85.50;;;;;;5027452;28;20447;-86
2021/06/23 06:51:10;;;;;;;11.33;3.50;;;25.30;87.80;;;;;;5023302;28;20437;-86
2021/06/23 06:53:39;;;;;;;10.73;3.70;;;26.30;86.60;;;;;;5022460;28;20471;-85
2021/06/23 06:56:08;;;;;;;15.87;3.63;;;26.10;83.70;;;;;;5040260;28;20518;-85
2021/06/23 06:58:35;;;;;;;11.87;3.70;;;25.20;84.80;;;;;;5031531;28;20452;-86
2021/06/23 07:01:03;;;;;;;11.17;4.23;;;24.10;88.10;;;;;;5033800;28;20543;-85
2021/06/23 07:03:31;;;;;;;10.87;3.90;;;23.50;90.50;;;;;;5028297;28;20522;-85
2021/06/23 07:05:58;;;;;;;9.50;3.60;;;22.90;91.50;;;;;;5025550;28;20491;-84
2021/06/23 07:08:25;;;;;;;20.13;5.70;;;22.10;92.60;;;;;;5009474;28;20455;-85
2021/06/23 07:10:57;;;;;;;10.03;4.87;;;21.70;94.20;;;;;;5008623;28;20452;-85
2021/06/23 07:13:24;;;;;;;8.40;4.03;;;21.60;95.60;;;;;;5020288;28;20453;-86
2021/06/23 07:15:51;;;;;;;12.60;3.50;;;21.70;96.10;;;;;;5018525;28;20476;-85
2021/06/23 07:18:18;;;;;;;12.00;4.33;;;21.60;95.90;;;;;;5014754;28;20460;-85
2021/06/23 07:20:45;;;;;;;13.20;4.33;;;22.20;95.80;;;;;;5019147;28;20554;-85
2021/06/23 07:23:12;;;;;;;8.37;3.50;;;22.40;95.30;;;;;;5025523;28;20459;-85
2021/06/23 07:25:40;;;;;;;11.37;3.23;;;22.30;94.30;;;;;;5019302;28;20485;-86
2021/06/23 07:28:12;;;;;;;11.10;3.67;;;22.00;94.20;;;;;;5028356;28;20563;-86
2021/06/23 07:30:44;;;;;;;14.27;4.97;;;21.70;94.80;;;;;;5019319;28;20588;-85
2021/06/23 07:33:11;;;;;;;9.30;3.20;;;21.40;95.40;;;;;;5018501;28;20463;-86
2021/06/23 07:38:23;;;;;;;7.40;2.83;;;20.90;97.00;;;;;;5018656;28;20507;-87
2021/06/23 07:40:53;;;;;;;10.57;3.37;;;20.80;97.30;;;;;;5020625;28;20478;-87
2021/06/23 07:43:22;;;;;;;9.70;3.90;;;20.50;98.70;;;;;;5028630;28;20539;-85
2021/06/23 07:45:51;;;;;;;13.53;4.07;;;20.40;99.60;;;;;;5015577;28;20471;-86
2021/06/23 07:48:22;;;;;;;10.13;3.20;;;20.70;99.10;;;;;;5019890;28;20528;-86
2021/06/23 07:50:51;;;;;;;11.97;3.90;;;21.30;97.70;;;;;;5020540;28;20515;-85
2021/06/23 07:53:26;;;;;;;11.43;2.97;;;22.40;96.90;;;;;;5019054;28;20468;-86
2021/06/23 07:56:01;;;;;;;12.97;3.43;;;24.50;93.20;;;;;;5017264;28;20525;-86
2021/06/23 08:09:33;;;;;;;5.57;3.60;;;23.90;90.90;;;;;;5012377;28;20896;-86
2021/06/23 08:14:50;;;;;;;11.17;3.47;;;22.70;92.60;;;;;;5004160;28;20447;-87
2021/06/23 08:17:17;;;;;;;12.53;3.67;;;22.20;93.20;;;;;;5016919;28;20458;-85
2021/06/23 08:19:44;;;;;;;10.23;4.27;;;21.80;94.20;;;;;;5014919;28;20925;-85
2021/06/23 08:22:11;;;;;;;11.17;3.43;;;21.50;95.10;;;;;;5024681;28;20484;-86
2021/06/23 08:24:39;;;;;;;12.77;3.87;;;21.30;95.80;;;;;;5007888;28;20448;-85
2021/06/23 08:27:08;;;;;;;12.20;2.87;;;20.60;96.80;;;;;;5018671;28;20855;-86
2021/06/23 08:29:35;;;;;;;10.93;3.73;;;20.40;98.40;;;;;;5026286;28;20447;-85
2021/06/23 08:32:04;;;;;;;9.03;3.90;;;20.30;98.80;;;;;;5019433;28;20534;-86
2021/06/23 08:34:31;;;;;;;7.77;4.27;;;20.20;99.70;;;;;;5032521;28;20501;-85
2021/06/23 08:36:58;;;;;;;14.13;4.73;;;20.20;99.70;;;;;;5026229;28;20552;-85
2021/06/23 08:39:26;;;;;;;10.13;3.40;;;20.10;99.50;;;;;;5025985;28;20440;-86
2021/06/23 08:41:54;;;;;;;9.57;3.50;;;20.00;99.80;;;;;;5035453;28;20477;-85
2021/06/23 08:44:22;;;;;;;7.03;3.27;;;19.90;99.00;;;;;;5035074;28;20474;-85
2021/06/23 08:46:51;;;;;;;7.03;4.10;;;19.90;99.20;;;;;;5028561;28;20464;-85
2021/06/23 08:49:20;;;;;;;8.17;4.43;;;19.90;99.90;;;;;;5031320;28;20555;-85
2021/06/23 08:51:47;;;;;;;8.57;3.10;;;20.00;99.90;;;;;;5035576;28;20446;-85
2021/06/23 08:54:14;;;;;;;15.30;4.50;;;20.20;99.90;;;;;;5033977;28;20475;-85
2021/06/23 08:56:42;;;;;;;7.37;3.33;;;20.40;99.90;;;;;;5024034;28;20453;-86
2021/06/23 08:59:09;;;;;;;10.93;3.43;;;20.70;99.40;;;;;;5035540;28;20439;-85
2021/06/23 09:01:36;;;;;;;9.70;4.30;;;20.70;98.90;;;;;;5039365;28;20491;-86
2021/06/23 09:04:08;;;;;;;12.23;4.40;;;20.70;99.10;;;;;;5026365;28;20478;-85
2021/06/23 09:06:48;;;;;;;7.73;3.80;;;20.50;98.70;;;;;;5019919;28;20861;-85
2021/06/23 09:09:21;;;;;;;13.77;5.13;;;20.40;99.60;;;;;;5015858;28;20512;-85
2021/06/23 09:11:50;;;;;;;11.73;4.50;;;20.30;99.50;;;;;;5028188;28;20450;-85
2021/06/23 09:14:19;;;;;;;9.33;4.07;;;20.10;99.90;;;;;;5023908;28;20855;-85
2021/06/23 09:17:10;;;;;;;10.23;4.10;;;20.10;99.90;;;;;;5024829;28;20465;-87
2021/06/23 09:19:39;;;;;;;7.60;3.50;;;20.00;99.90;;;;;;5031632;28;20537;-86
2021/06/23 09:22:35;;;;;;;7.60;3.63;;;19.90;99.90;;;;;;5022879;28;20507;-86
2021/06/23 09:25:06;;;;;;;11.23;5.67;;;20.10;99.90;;;;;;5021474;28;20458;-86
2021/06/23 09:27:33;;;;;;;10.57;5.30;;;20.30;99.90;;;;;;5032297;28;20456;-87
2021/06/23 09:30:27;;;;;;;12.53;3.50;;;20.50;99.50;;;;;;5029032;28;20427;-85
2021/06/23 09:33:21;;;;;;;5.97;3.57;;;20.90;99.30;;;;;;5025827;28;20429;-85
2021/06/23 09:35:59;;;;;;;10.90;4.30;;;21.20;98.60;;;;;;5011943;28;20460;-85
2021/06/23 09:38:39;;;;;;;7.33;4.00;;;21.70;97.10;;;;;;5030068;28;20476;-85
2021/06/23 09:41:18;;;;;;;9.23;4.20;;;21.90;96.20;;;;;;5023399;28;20477;-86
2021/06/23 09:43:49;;;;;;;9.73;4.30;;;22.10;95.90;;;;;;5025250;28;20536;-85
2021/06/23 09:46:19;;;;;;;10.37;5.17;;;22.50;95.40;;;;;;5025146;28;20478;-86
2021/06/23 09:48:47;;;;;;;6.83;4.17;;;22.90;94.60;;;;;;5022908;28;20457;-86
2021/06/23 09:51:16;;;;;;;10.80;4.30;;;23.20;93.80;;;;;;5023709;28;20455;-86
2021/06/23 09:53:46;;;;;;;12.87;4.13;;;23.40;92.90;;;;;;5023401;28;20446;-85
2021/06/23 09:56:32;;;;;;;7.23;3.90;;;23.70;92.90;;;;;;5020981;28;20483;-85
2021/06/23 09:59:00;;;;;;;12.20;6.40;;;24.50;92.10;;;;;;5027430;28;20451;-85
2021/06/23 10:01:30;;;;;;;10.43;4.43;;;24.90;90.90;;;;;;5029017;28;20479;-86
2021/06/23 10:03:59;;;;;;;7.77;3.50;;;24.80;90.50;;;;;;5027550;28;20464;-86
2021/06/23 10:06:28;;;;;;;9.43;3.70;;;24.70;90.50;;;;;;5020493;28;20504;-87
2021/06/23 10:09:16;;;;;;;8.00;3.40;;;24.50;90.00;;;;;;5007667;28;20455;-86
2021/06/23 10:11:43;;;;;;;7.43;3.47;;;24.40;90.70;;;;;;5015216;28;20440;-86
2021/06/23 10:14:11;;;;;;;11.73;4.50;;;23.80;91.40;;;;;;5015228;28;20448;-86
2021/06/23 10:16:42;;;;;;;11.13;4.20;;;23.40;92.20;;;;;;5024090;28;20510;-86
2021/06/23 10:19:12;;;;;;;6.27;4.77;;;23.30;92.60;;;;;;5023019;28;20891;-86
2021/06/23 10:21:40;;;;;;;12.80;4.10;;;23.10;93.00;;;;;;5022037;28;20566;-85
2021/06/23 10:24:12;;;;;;;9.30;4.30;;;23.20;93.00;;;;;;5020992;28;20933;-86
2021/06/23 10:26:47;;;;;;;7.07;3.30;;;23.60;92.70;;;;;;5024285;28;20537;-84
2021/06/23 10:29:16;;;;;;;16.20;4.90;;;23.50;92.30;;;;;;5027275;28;20943;-85
2021/06/23 10:31:47;;;;;;;10.97;3.73;;;23.40;92.20;;;;;;5027220;28;20869;-84
2021/06/23 10:34:18;;;;;;;7.63;3.00;;;23.50;91.60;;;;;;5020746;28;20467;-86
2021/06/23 10:36:46;;;;;;;5.20;2.50;;;23.50;91.80;;;;;;5017868;28;20456;-85
2021/06/23 10:39:14;;;;;;;9.10;3.57;;;23.70;91.30;;;;;;5029332;28;20466;-86
2021/06/23 10:41:44;;;;;;;7.17;3.23;;;23.80;90.90;;;;;;5026404;28;20518;-86
2021/06/23 10:44:23;;;;;;;6.47;3.00;;;24.00;90.60;;;;;;5019818;28;20460;-84
2021/06/23 10:46:53;;;;;;;7.50;4.60;;;24.20;90.30;;;;;;5017223;28;20479;-86
2021/06/23 10:49:43;;;;;;;10.53;3.70;;;24.30;90.10;;;;;;5019780;28;20453;-84
2021/06/23 10:52:41;;;;;;;8.23;3.80;;;24.40;90.10;;;;;;5018999;28;20470;-85
2021/06/23 10:55:47;;;;;;;6.77;3.60;;;24.70;89.40;;;;;;5018309;28;20464;-85
2021/06/23 10:58:15;;;;;;;7.33;3.30;;;25.40;88.00;;;;;;5029423;28;20444;-86
2021/06/23 11:00:48;;;;;;;9.50;4.40;;;25.70;86.70;;;;;;5028519;28;20544;-86
2021/06/23 11:03:17;;;;;;;6.40;3.03;;;26.00;86.50;;;;;;5040305;28;20440;-85
2021/06/23 11:05:46;;;;;;;8.37;3.00;;;26.30;84.60;;;;;;5032736;28;20482;-86
2021/06/23 11:08:31;;;;;;;7.03;2.93;;;26.30;84.40;;;;;;5037643;28;20456;-86
2021/06/23 11:11:07;;;;;;;7.40;4.20;;;26.40;83.30;;;;;;5030587;28;20457;-85
2021/06/23 11:13:39;;;;;;;11.13;3.30;;;26.50;83.40;;;;;;5020482;28;20445;-85
2021/06/23 11:16:07;;;;;;;6.43;2.57;;;26.50;80.00;;;;;;5031592;28;20483;-85
2021/06/23 11:18:37;;;;;;;5.53;2.73;;;26.20;80.20;;;;;;5026058;28;20480;-85
2021/06/23 11:21:18;;;;;;;8.30;3.80;;;25.90;81.90;;;;;;5024005;28;20487;-85
2021/06/23 11:23:55;;;;;;;5.37;3.03;;;25.80;82.30;;;;;;5020999;28;20454;-86
2021/06/23 11:26:56;;;;;;;7.10;3.23;;;25.70;82.80;;;;;;5025811;28;20458;-85
2021/06/23 11:29:36;;;;;;;13.40;3.47;;;25.30;81.50;;;;;;5022107;28;20470;-86
2021/06/23 11:32:12;;;;;;;9.27;4.07;;;25.00;84.30;;;;;;5016863;28;20796;-86
2021/06/23 11:35:01;;;;;;;9.50;4.50;;;24.80;85.40;;;;;;5018098;28;20501;-86
2021/06/23 11:37:32;;;;;;;7.20;3.83;;;24.80;84.70;;;;;;5021923;28;20508;-85
2021/06/23 11:40:20;;;;;;;10.50;4.37;;;25.10;85.10;;;;;;5023247;28;20462;-86
2021/06/23 11:42:48;;;;;;;7.80;3.80;;;25.30;84.20;;;;;;5023977;28;20487;-86
2021/06/23 11:45:20;;;;;;;9.50;4.17;;;25.30;84.50;;;;;;5016135;28;20543;-86
2021/06/23 11:47:50;;;;;;;7.00;4.87;;;25.40;84.60;;;;;;5021419;28;20455;-86
2021/06/23 11:50:18;;;;;;;10.17;4.17;;;25.30;83.50;;;;;;5021459;28;20471;-86
2021/06/23 11:52:46;;;;;;;7.87;3.97;;;25.30;84.20;;;;;;5024860;28;20466;-86
2021/06/23 11:55:23;;;;;;;6.63;3.50;;;25.30;84.60;;;;;;5022486;28;20503;-86
2021/06/23 11:57:55;;;;;;;5.70;3.70;;;25.20;83.70;;;;;;5016137;28;20724;-86
2021/06/23 12:00:27;;;;;;;7.93;3.87;;;25.20;85.40;;;;;;5017662;28;20456;-86
2021/06/23 12:02:54;;;;;;;7.20;3.57;;;25.00;86.10;;;;;;5016877;28;20550;-86
2021/06/23 12:05:23;;;;;;;9.63;4.20;;;24.70;86.40;;;;;;5013966;28;20583;-86
2021/06/23 12:07:51;;;;;;;6.73;3.23;;;24.60;87.30;;;;;;5020449;28;20455;-86
2021/06/23 12:10:19;;;;;;;6.13;3.83;;;24.60;87.00;;;;;;5021948;28;20494;-86
2021/06/23 12:12:47;;;;;;;9.20;4.47;;;24.50;87.50;;;;;;5021243;28;20448;-86
2021/06/23 12:15:17;;;;;;;7.47;3.80;;;24.40;87.30;;;;;;5021249;28;20467;-86
2021/06/23 12:17:46;;;;;;;7.67;3.83;;;24.20;87.70;;;;;;5011988;28;20510;-86
2021/06/23 12:20:14;;;;;;;8.57;4.27;;;23.80;88.60;;;;;;5018632;28;20483;-85
2021/06/23 12:22:41;;;;;;;10.33;4.20;;;23.50;90.00;;;;;;5026878;28;20474;-86
2021/06/23 12:25:12;;;;;;;6.40;3.87;;;23.40;90.20;;;;;;5020359;28;20439;-85
2021/06/23 12:27:42;;;;;;;9.53;4.77;;;23.10;90.20;;;;;;5023202;28;20460;-86
2021/06/23 12:30:10;;;;;;;7.80;3.67;;;23.20;90.60;;;;;;5022598;28;20961;-86
2021/06/23 12:32:38;;;;;;;10.40;4.47;;;23.00;90.90;;;;;;5018894;28;20527;-86
2021/06/23 12:35:07;;;;;;;6.30;4.40;;;23.10;90.90;;;;;;5012203;28;20440;-86
2021/06/23 12:37:34;;;;;;;7.83;4.73;;;23.00;90.80;;;;;;5014512;28;20959;-85
2021/06/23 12:40:02;;;;;;;7.30;4.00;;;23.20;90.50;;;;;;5026179;28;20906;-86
2021/06/23 12:42:29;;;;;;;12.17;5.03;;;23.20;90.90;;;;;;5018066;28;20483;-86
2021/06/23 12:44:57;;;;;;;11.77;4.43;;;23.30;91.00;;;;;;5020453;28;20469;-86
2021/06/23 12:47:24;;;;;;;13.10;4.63;;;23.30;90.70;;;;;;5016912;28;20468;-85
2021/06/23 12:49:52;;;;;;;8.80;4.20;;;23.40;90.70;;;;;;5020319;28;20491;-86
2021/06/23 12:52:20;;;;;;;6.37;4.03;;;23.30;90.70;;;;;;5024661;28;20899;-85
2021/06/23 12:54:47;;;;;;;8.87;4.37;;;23.50;90.00;;;;;;5021770;28;20564;-86
2021/06/23 12:57:15;;;;;;;8.27;4.47;;;23.40;90.00;;;;;;5023296;28;20516;-86
2021/06/23 12:59:42;;;;;;;9.83;3.80;;;23.60;90.20;;;;;;5019312;28;20557;-86
2021/06/23 13:02:09;;;;;;;5.17;3.83;;;23.40;90.60;;;;;;5022445;28;20480;-85
2021/06/23 13:04:36;;;;;;;6.77;4.37;;;23.30;90.20;;;;;;5022348;28;20545;-86
2021/06/23 13:07:04;;;;;;;6.03;3.80;;;23.20;90.70;;;;;;5024669;28;20470;-85
2021/06/23 13:09:33;;;;;;;4.37;3.10;;;23.20;90.60;;;;;;5027667;28;20468;-86
2021/06/23 13:12:01;;;;;;;6.00;3.57;;;23.30;91.20;;;;;;5024448;28;20487;-86
2021/06/23 13:14:28;;;;;;;9.53;4.17;;;23.50;91.00;;;;;;5027135;28;20505;-85
2021/06/23 13:16:58;;;;;;;6.80;3.60;;;23.50;90.40;;;;;;5022647;28;20517;-85
2021/06/23 13:19:26;;;;;;;14.37;5.20;;;23.70;90.30;;;;;;5017889;28;20478;-86
2021/06/23 13:21:54;;;;;;;9.17;3.70;;;24.10;90.60;;;;;;5024603;28;20506;-85
2021/06/23 13:24:22;;;;;;;7.80;3.73;;;24.40;90.00;;;;;;5023968;28;20442;-85
2021/06/23 13:26:51;;;;;;;10.30;4.10;;;24.60;88.30;;;;;;5022683;28;20480;-86
2021/06/23 13:29:18;;;;;;;6.97;3.63;;;24.50;88.40;;;;;;5024748;28;20470;-85
2021/06/23 13:31:46;;;;;;;5.83;3.03;;;24.40;88.80;;;;;;5036161;28;20496;-85
2021/06/23 13:34:17;;;;;;;6.50;4.20;;;24.20;88.70;;;;;;5022106;28;20494;-85
2021/06/23 13:36:45;;;;;;;10.40;4.37;;;24.10;89.60;;;;;;5036135;28;20471;-85
2021/06/23 13:39:13;;;;;;;6.67;4.00;;;23.90;90.00;;;;;;5034813;28;20467;-87
2021/06/23 13:41:42;;;;;;;8.43;4.27;;;24.00;88.70;;;;;;5034491;28;20443;-86
2021/06/23 13:44:16;;;;;;;10.97;3.87;;;23.80;90.00;;;;;;5026202;28;20449;-85
2021/06/23 13:46:43;;;;;;;6.47;4.03;;;23.80;90.20;;;;;;5023371;28;20519;-85
2021/06/23 13:49:10;;;;;;;11.20;4.70;;;23.70;90.20;;;;;;5020883;28;20464;-86
2021/06/23 13:51:40;;;;;;;9.07;4.33;;;23.50;90.10;;;;;;5033098;28;20441;-85
2021/06/23 13:54:08;;;;;;;10.00;3.90;;;23.20;90.20;;;;;;5023487;28;20437;-86
2021/06/23 13:56:37;;;;;;;13.90;4.57;;;23.00;91.00;;;;;;5036292;28;20463;-85
2021/06/23 13:59:04;;;;;;;7.87;3.40;;;23.00;91.20;;;;;;5034149;28;20478;-86
2021/06/23 14:01:33;;;;;;;4.37;3.43;;;22.90;91.20;;;;;;5037731;28;20436;-85
2021/06/23 14:04:01;;;;;;;8.80;3.80;;;22.80;91.40;;;;;;5031798;28;20447;-85
2021/06/23 14:06:28;;;;;;;7.67;4.10;;;22.80;91.10;;;;;;5028387;28;20460;-85
2021/06/23 14:08:56;;;;;;;7.50;3.77;;;22.70;91.10;;;;;;5032943;28;20498;-85
2021/06/23 14:11:26;;;;;;;8.53;4.57;;;22.60;91.80;;;;;;5034073;28;20447;-85
2021/06/23 14:13:54;;;;;;;7.40;3.40;;;22.50;91.60;;;;;;5034212;28;20458;-85
2021/06/23 14:16:24;;;;;;;8.17;3.80;;;22.40;92.10;;;;;;5026119;28;20474;-86
2021/06/23 14:18:52;;;;;;;9.43;4.50;;;22.30;92.10;;;;;;5033757;28;20526;-86
2021/06/23 14:21:20;;;;;;;7.80;4.80;;;22.30;92.30;;;;;;5032826;28;20426;-85
2021/06/23 14:23:47;;;;;;;5.83;4.07;;;22.20;92.40;;;;;;5033223;28;20500;-86
2021/06/23 14:26:14;;;;;;;8.47;4.10;;;22.10;92.60;;;;;;5029955;28;20483;-86
2021/06/23 14:28:42;;;;;;;7.73;3.47;;;22.10;93.10;;;;;;5025895;28;20470;-86
2021/06/23 14:31:09;;;;;;;6.83;3.47;;;22.20;92.50;;;;;;5025260;28;20455;-86
2021/06/23 14:33:36;;;;;;;8.60;4.33;;;22.20;92.50;;;;;;5024698;28;20439;-86
2021/06/23 14:36:06;;;;;;;7.97;3.00;;;22.30;92.60;;;;;;5023507;28;20459;-86
2021/06/23 14:38:35;;;;;;;11.93;4.20;;;22.30;93.00;;;;;;5020239;28;20489;-86
2021/06/23 14:41:02;;;;;;;6.03;4.00;;;22.30;92.50;;;;;;5027271;28;20474;-86
2021/06/23 14:43:30;;;;;;;8.50;4.50;;;22.50;92.80;;;;;;5026555;28;20506;-85
2021/06/23 14:45:58;;;;;;;6.10;3.37;;;22.60;92.50;;;;;;5026852;28;20479;-85
2021/06/23 14:48:25;;;;;;;8.70;3.47;;;22.60;91.70;;;;;;5012664;28;20514;-86
2021/06/23 14:51:04;;;;;;;6.23;3.27;;;22.60;92.00;;;;;;5028852;28;20475;-85
2021/06/23 14:53:35;;;;;;;3.93;2.83;;;22.60;91.90;;;;;;5019168;28;20447;-85
2021/06/23 14:56:02;;;;;;;7.40;3.40;;;22.60;92.40;;;;;;5015048;28;20483;-86
2021/06/23 14:58:30;;;;;;;6.57;4.20;;;22.60;92.70;;;;;;5027074;28;20447;-85
2021/06/23 15:00:58;;;;;;;8.27;3.17;;;22.70;92.60;;;;;;5017454;28;20482;-85
2021/06/23 15:03:25;;;;;;;8.77;3.23;;;22.90;92.60;;;;;;5033988;28;20486;-85
2021/06/23 15:05:53;;;;;;;5.20;3.83;;;22.90;93.00;;;;;;5020759;28;20538;-86
2021/06/23 15:08:20;;;;;;;6.30;4.17;;;22.80;92.70;;;;;;5021958;28;20450;-85
2021/06/23 15:10:49;;;;;;;6.20;4.00;;;22.80;92.70;;;;;;5021974;28;20478;-86
2021/06/23 15:13:16;;;;;;;8.13;3.13;;;22.70;92.80;;;;;;5018760;28;20451;-86
2021/06/23 15:15:44;;;;;;;7.23;3.97;;;22.70;93.10;;;;;;5018391;28;20490;-85
2021/06/23 15:18:11;;;;;;;7.10;3.90;;;22.60;93.00;;;;;;5021188;28;20542;-86
2021/06/23 15:20:40;;;;;;;6.50;3.73;;;22.60;93.00;;;;;;5024071;28;20490;-86
2021/06/23 15:23:07;;;;;;;7.80;4.80;;;22.60;93.10;;;;;;5024971;28;20459;-86
2021/06/23 15:25:35;;;;;;;5.27;3.80;;;22.60;92.70;;;;;;5024624;28;20540;-85
2021/06/23 15:28:05;;;;;;;13.90;4.50;;;22.40;93.10;;;;;;5025424;28;21047;-85
2021/06/23 15:30:32;;;;;;;4.93;3.70;;;22.40;93.40;;;;;;5024538;28;20565;-86
2021/06/23 15:32:59;;;;;;;8.10;3.97;;;22.50;93.30;;;;;;5025622;28;20453;-86
2021/06/23 15:35:27;;;;;;;4.93;4.00;;;22.50;93.00;;;;;;5021360;28;20530;-87
2021/06/23 15:37:54;;;;;;;7.43;3.73;;;22.40;93.40;;;;;;5024332;28;20523;-86
2021/06/23 15:40:22;;;;;;;13.60;4.57;;;22.30;93.30;;;;;;5026802;28;20509;-86
2021/06/23 15:42:49;;;;;;;5.40;4.20;;;22.20;93.30;;;;;;5022027;28;20482;-85
2021/06/23 15:45:18;;;;;;;9.50;4.23;;;22.00;93.70;;;;;;5010687;28;20483;-86
2021/06/23 15:47:48;;;;;;;9.43;4.40;;;21.90;93.60;;;;;;5018830;28;20472;-86
2021/06/23 15:50:16;;;;;;;7.17;3.97;;;21.80;94.20;;;;;;5019772;28;20451;-86
2021/06/23 15:52:45;;;;;;;7.67;4.40;;;21.70;94.90;;;;;;5035112;28;20604;-86
2021/06/23 15:55:14;;;;;;;4.60;4.20;;;21.60;95.00;;;;;;5016615;28;20497;-86
2021/06/23 15:57:43;;;;;;;8.73;3.60;;;21.60;95.10;;;;;;5020826;28;20474;-86
2021/06/23 16:00:13;;;;;;;6.37;4.00;;;21.60;95.10;;;;;;5009589;28;20450;-86
2021/06/23 16:02:41;;;;;;;8.30;4.40;;;21.40;95.30;;;;;;5016048;28;20482;-87
2021/06/23 16:05:10;;;;;;;7.30;3.67;;;21.20;95.80;;;;;;5025141;28;20484;-86
2021/06/23 16:07:37;;;;;;;6.80;4.50;;;21.20;96.30;;;;;;5016341;28;20447;-85
2021/06/23 16:10:05;;;;;;;6.40;4.00;;;21.10;96.30;;;;;;5022206;28;20455;-86
2021/06/23 16:12:33;;;;;;;9.17;3.93;;;21.10;96.80;;;;;;5020057;28;20500;-87
2021/06/23 16:15:01;;;;;;;6.97;4.20;;;21.10;97.00;;;;;;5012423;28;20562;-86
2021/06/23 16:17:29;;;;;;;6.43;4.57;;;21.20;97.30;;;;;;5013576;28;20491;-86
2021/06/23 16:19:58;;;;;;;10.17;3.80;;;21.20;97.40;;;;;;5024482;28;20449;-86
2021/06/23 16:22:29;;;;;;;6.27;3.90;;;21.20;97.50;;;;;;5017233;28;20530;-87
2021/06/23 16:24:57;;;;;;;7.27;3.87;;;21.20;97.30;;;;;;5025430;28;20466;-86
2021/06/23 16:27:25;;;;;;;6.13;3.00;;;21.20;97.50;;;;;;5016472;28;20503;-85
2021/06/23 16:29:52;;;;;;;5.73;3.83;;;21.10;97.70;;;;;;5013464;28;20464;-86
2021/06/23 16:32:21;;;;;;;6.17;4.03;;;21.30;97.90;;;;;;5023668;28;20442;-85
2021/06/23 16:34:49;;;;;;;8.73;5.30;;;21.30;97.60;;;;;;5022982;28;20435;-84
2021/06/23 16:37:17;;;;;;;6.93;3.20;;;21.20;97.50;;;;;;5015888;28;20567;-85
2021/06/23 16:39:47;;;;;;;6.43;3.80;;;21.20;97.70;;;;;;5026334;28;20489;-86
2021/06/23 16:42:17;;;;;;;4.73;2.93;;;21.10;98.10;;;;;;5022484;28;20756;-88
2021/06/23 16:44:52;;;;;;;8.47;4.77;;;21.20;97.80;;;;;;5029363;28;20507;-87
2021/06/23 16:47:27;;;;;;;7.97;3.43;;;21.20;97.80;;;;;;5014962;28;21127;-86
2021/06/23 16:50:24;;;;;;;7.87;4.43;;;21.20;98.30;;;;;;5005153;28;20474;-87
2021/06/23 16:53:01;;;;;;;6.73;3.70;;;21.20;97.80;;;;;;5019670;28;20441;-86
2021/06/23 16:58:33;;;;;;;8.20;4.80;;;21.30;97.80;;;;;;5018638;28;20512;-86
2021/06/23 17:01:20;;;;;;;5.70;3.50;;;21.30;97.40;;;;;;5027325;28;20445;-86
2021/06/23 17:04:08;;;;;;;6.77;4.53;;;21.20;97.50;;;;;;5021916;28;20481;-87
2021/06/23 17:06:48;;;;;;;10.20;4.30;;;21.30;97.40;;;;;;5021514;28;20556;-86
2021/06/23 17:09:39;;;;;;;10.80;4.07;;;21.20;97.20;;;;;;5023881;28;20480;-86
2021/06/23 17:12:17;;;;;;;7.87;3.80;;;21.10;97.60;;;;;;5019881;28;20957;-87
2021/06/23 17:14:55;;;;;;;;;;;;;;;;;;;;;
2021/06/23 17:17:24;;;;;;;3.57;3.27;;;21.20;97.90;;;;;;5024299;28;20451;-87
2021/06/23 17:19:58;;;;;;;12.10;4.60;;;21.20;97.60;;;;;;5016218;28;20450;-86
2021/06/23 17:22:27;;;;;;;10.07;3.40;;;21.20;97.40;;;;;;5017751;28;20454;-86
2021/06/23 17:25:07;;;;;;;8.57;3.60;;;21.10;97.80;;;;;;5019095;28;20893;-86
2021/06/23 17:27:45;;;;;;;;;;;;;;;;;;;;;
2021/06/23 17:33:08;;;;;;;7.60;4.00;;;20.90;97.80;;;;;;5016790;28;20529;-85
2021/06/23 17:35:41;;;;;;;5.63;3.33;;;20.90;97.90;;;;;;5012326;28;20486;-86
2021/06/23 17:38:09;;;;;;;9.30;3.90;;;20.80;98.50;;;;;;5027925;28;20447;-84
2021/06/23 17:40:59;;;;;;;7.57;4.37;;;20.80;98.00;;;;;;5025995;28;20462;-85
2021/06/23 17:43:27;;;;;;;8.10;3.80;;;20.60;98.00;;;;;;5012544;28;20474;-87